Farroupilha, Brazil
Current Conditions -  °F | °C
As of 5:00 PM on Sunday 23 Nov 2014 (Local Time) from SBCO Reporting Station
Clear Clear  
Wind Chill: 81°   Ceiling: Unl
Heat Index: 81°   Visibility: 6mi
Dew Point: 52°   Wind: 8mph
Humidity: 37%   Direction: 170°S
Pressure: 29.91"   Gusts: NA
Location:  29.23°S, 51.35°W
Report Text: SBCO 231900Z 17007KT CAVOK 27/11 Q1013
Loading
Personal Weather Stations






























Interactive Weather Map New forecast layout! Learn more

10-Day Weather Forecast

Advertisements
Track Severe Weather on mobile